createdAt,value
2024-01-14T00:03:28.622Z,47.67
2024-01-14T00:04:01.239Z,41.88
2024-01-14T00:06:54.924Z,46.03
2024-01-14T00:12:47.026Z,41.78
2024-01-14T00:15:35.469Z,39.53
2024-01-14T00:18:23.772Z,39.97
2024-01-14T00:21:18.020Z,47.25
2024-01-14T00:24:07.306Z,38.90
2024-01-14T00:27:05.753Z,47.92
2024-01-14T00:29:59.580Z,39.03
2024-01-14T00:32:51.270Z,42.30
2024-01-14T00:35:44.982Z,46.33
2024-01-14T00:38:33.942Z,41.55
2024-01-14T00:41:24.709Z,43.10
2024-01-14T00:44:14.067Z,42.83
2024-01-14T00:47:03.117Z,49.92
2024-01-14T00:49:51.433Z,45.80
2024-01-14T00:52:39.896Z,40.15
2024-01-14T00:55:33.716Z,53.67
2024-01-14T00:58:24.768Z,40.92
2024-01-14T01:01:14.620Z,44.40
2024-01-14T01:04:02.942Z,41.65
2024-01-14T01:06:55.746Z,49.40
2024-01-14T01:09:45.821Z,44.63
2024-01-14T01:12:38.183Z,43.35
2024-01-14T01:15:28.647Z,46.10
2024-01-14T01:18:19.119Z,47.22
2024-01-14T01:21:07.862Z,44.60
2024-01-14T01:23:59.572Z,40.17
2024-01-14T01:26:47.945Z,45.35
2024-01-14T01:29:43.721Z,45.20
2024-01-14T01:32:32.554Z,45.97
2024-01-14T01:35:21.905Z,42.33
2024-01-14T01:38:13.669Z,45.08
2024-01-14T01:41:02.008Z,46.03
2024-01-14T01:43:51.621Z,51.38
2024-01-14T01:46:43.286Z,44.92
2024-01-14T01:49:34.796Z,50.33
2024-01-14T01:52:28.076Z,46.42
2024-01-14T01:55:18.145Z,56.20
2024-01-14T01:58:09.666Z,53.00
2024-01-14T02:01:03.599Z,51.65
2024-01-14T02:04:06.778Z,53.35
2024-01-14T03:14:07.787Z,52.85
2024-01-14T03:23:54.234Z,61.50
2024-01-14T03:27:13.845Z,44.63
2024-01-14T03:30:23.391Z,60.17
2024-01-14T03:33:20.925Z,57.65
2024-01-14T03:36:20.809Z,50.00
2024-01-14T03:39:09.642Z,52.90
2024-01-14T03:42:08.055Z,56.97
2024-01-14T03:45:08.436Z,50.67
2024-01-14T03:47:56.991Z,49.88
2024-01-14T03:50:47.518Z,47.30
2024-01-14T03:53:36.484Z,47.53
2024-01-14T03:56:31.518Z,52.42
2024-01-14T03:59:20.208Z,54.17
2024-01-14T04:02:11.415Z,46.38
2024-01-14T04:04:59.898Z,47.40
2024-01-14T04:07:50.731Z,48.30
2024-01-14T04:10:39.015Z,50.47
2024-01-14T04:13:27.480Z,54.55
2024-01-14T04:16:18.565Z,55.97
2024-01-14T04:19:08.357Z,60.92
2024-01-14T04:21:57.209Z,59.08
2024-01-14T04:24:45.855Z,51.65
2024-01-14T04:27:36.614Z,47.42
2024-01-14T04:30:27.218Z,52.85
2024-01-14T04:33:20.450Z,52.40
2024-01-14T04:36:09.174Z,45.75
2024-01-14T04:39:01.509Z,50.75
2024-01-14T04:41:52.954Z,44.40
2024-01-14T04:44:50.241Z,50.63
2024-01-14T04:47:41.974Z,47.13
2024-01-14T04:50:30.318Z,50.15
2024-01-14T04:53:22.268Z,50.63
2024-01-14T04:56:18.437Z,54.55
2024-01-14T04:59:09.540Z,54.47
2024-01-14T05:02:00.827Z,52.28
2024-01-14T05:04:52.018Z,54.42
2024-01-14T05:07:40.529Z,49.22
2024-01-14T05:10:31.556Z,46.25
2024-01-14T05:13:24.116Z,51.78
2024-01-14T05:16:12.610Z,50.08
2024-01-14T05:19:07.011Z,34.63
2024-01-14T05:22:00.479Z,50.40
2024-01-14T05:24:56.843Z,50.97
2024-01-14T05:27:55.560Z,53.47
2024-01-14T05:30:45.073Z,49.42
2024-01-14T05:33:33.879Z,49.97
2024-01-14T05:36:22.623Z,42.08
2024-01-14T05:39:11.199Z,64.40
2024-01-14T05:41:59.694Z,50.97
2024-01-14T05:44:50.445Z,37.20
2024-01-14T05:47:39.077Z,50.33
2024-01-14T05:50:27.453Z,50.60
2024-01-14T05:53:17.202Z,50.78
2024-01-14T05:56:16.956Z,45.40
2024-01-14T05:59:05.205Z,51.42
2024-01-14T06:01:56.954Z,57.50
2024-01-14T06:04:48.550Z,53.10
2024-01-14T06:07:39.140Z,52.20
2024-01-14T06:10:27.912Z,51.22
2024-01-14T06:13:20.900Z,49.70
2024-01-14T06:16:10.168Z,46.78
2024-01-14T06:18:58.815Z,41.15
2024-01-14T06:21:51.774Z,52.45
2024-01-14T06:24:42.612Z,52.55
2024-01-14T06:27:32.957Z,48.92
2024-01-14T06:30:25.157Z,48.60
2024-01-14T06:33:14.476Z,50.85
2024-01-14T06:36:07.546Z,54.08
2024-01-14T06:38:56.446Z,58.63
2024-01-14T06:41:45.421Z,51.40
2024-01-14T06:44:34.988Z,55.38
2024-01-14T06:47:23.463Z,57.88
2024-01-14T06:50:15.753Z,58.08
2024-01-14T06:53:05.613Z,52.45
2024-01-14T06:55:55.724Z,33.67
2024-01-14T06:58:44.333Z,50.67
2024-01-14T07:01:35.477Z,53.47
2024-01-14T07:05:08.858Z,58.00
2024-01-14T07:18:51.683Z,54.70
2024-01-14T08:11:26.173Z,78.10
2024-01-14T08:42:02.252Z,78.93
2024-01-14T08:45:13.780Z,79.95
2024-01-14T08:48:18.702Z,71.97
2024-01-14T08:51:21.160Z,86.40
2024-01-14T08:54:22.105Z,81.28
2024-01-14T08:57:39.399Z,75.85
2024-01-14T09:01:08.605Z,72.18
2024-01-14T09:04:24.305Z,77.32
2024-01-14T09:08:05.088Z,84.75
2024-01-14T09:14:56.162Z,79.15
2024-01-14T09:41:02.871Z,77.25
2024-01-14T10:42:13.375Z,53.25
2024-01-14T10:45:10.437Z,52.53
2024-01-14T10:48:22.169Z,53.22
2024-01-14T10:51:21.085Z,60.47
2024-01-14T10:54:32.298Z,57.05
2024-01-14T10:57:39.185Z,56.90
2024-01-14T11:00:36.338Z,51.63
2024-01-14T11:03:30.301Z,49.95
2024-01-14T11:06:29.244Z,53.17
2024-01-14T11:09:42.528Z,52.63
2024-01-14T11:13:53.307Z,54.77
2024-01-14T11:17:47.676Z,41.83
2024-01-14T11:20:58.849Z,37.20
2024-01-14T11:24:04.420Z,41.88
2024-01-14T11:27:24.836Z,42.47
2024-01-14T11:30:32.401Z,40.80
2024-01-14T11:33:48.683Z,40.10
2024-01-14T11:37:04.071Z,34.55
2024-01-14T11:40:04.546Z,35.17
2024-01-14T11:43:15.525Z,38.55
2024-01-14T11:46:06.020Z,31.00
2024-01-14T11:49:13.823Z,35.38
2024-01-14T11:52:15.200Z,38.45
2024-01-14T11:55:06.899Z,38.00
2024-01-14T11:57:57.806Z,42.72
2024-01-14T12:00:56.543Z,47.10
2024-01-14T12:03:44.972Z,53.22
2024-01-14T12:06:47.490Z,41.33
2024-01-14T12:09:36.166Z,40.80
2024-01-14T12:12:28.851Z,48.20
2024-01-14T12:15:20.996Z,30.23
2024-01-14T12:18:13.760Z,50.58
2024-01-14T12:21:23.455Z,54.43
2024-01-14T12:24:21.360Z,45.75
2024-01-14T12:27:16.258Z,41.72
2024-01-14T12:30:07.877Z,39.83
2024-01-14T12:32:59.898Z,42.22
2024-01-14T12:35:53.156Z,41.15
2024-01-14T12:38:44.195Z,31.88
2024-01-14T12:41:48.582Z,53.85
2024-01-14T12:45:00.991Z,55.53
2024-01-14T12:48:01.751Z,48.58
2024-01-14T12:51:03.527Z,48.95
2024-01-14T12:54:08.203Z,51.22
2024-01-14T12:57:17.083Z,48.22
2024-01-14T13:00:21.698Z,43.25
2024-01-14T13:03:11.552Z,40.38
2024-01-14T13:06:08.451Z,44.22
2024-01-14T13:09:08.155Z,39.88
2024-01-14T13:11:56.811Z,40.53
2024-01-14T13:14:56.935Z,53.55
2024-01-14T13:17:53.848Z,48.72
2024-01-14T13:20:44.625Z,48.03
2024-01-14T13:23:35.304Z,43.53
2024-01-14T13:26:28.472Z,47.42
2024-01-14T13:29:16.822Z,49.38
2024-01-14T13:32:08.465Z,49.20
2024-01-14T13:34:59.247Z,50.10
2024-01-14T13:37:47.556Z,61.22
2024-01-14T13:40:38.393Z,44.83
2024-01-14T13:43:34.825Z,51.00
2024-01-14T13:46:25.336Z,38.67
2024-01-14T13:49:21.431Z,45.97
2024-01-14T13:52:09.512Z,41.97
2024-01-14T13:54:57.972Z,47.67
2024-01-14T13:58:13.201Z,49.10
2024-01-14T14:01:01.759Z,48.20
2024-01-14T14:03:50.135Z,54.35
2024-01-14T14:06:46.169Z,47.85
2024-01-14T14:09:39.971Z,47.35
2024-01-14T14:12:28.526Z,41.75
2024-01-14T14:15:19.639Z,49.75
2024-01-14T14:18:17.686Z,53.78
2024-01-14T14:21:09.172Z,50.65
2024-01-14T14:23:58.880Z,61.00
2024-01-14T14:26:47.480Z,58.53
2024-01-14T14:29:46.915Z,60.53
2024-01-14T14:32:35.429Z,52.13
2024-01-14T14:35:26.233Z,66.15
2024-01-14T14:38:14.887Z,65.05
2024-01-14T14:41:07.534Z,65.22
2024-01-14T14:43:57.882Z,58.22
2024-01-14T14:46:46.640Z,59.15
2024-01-14T14:49:46.020Z,55.97
2024-01-14T14:52:45.837Z,52.33
2024-01-14T14:55:35.928Z,55.00
2024-01-14T14:58:25.761Z,60.25
2024-01-14T15:01:24.663Z,61.47
2024-01-14T15:04:20.663Z,60.85
2024-01-14T15:07:14.517Z,61.58
2024-01-14T15:10:04.409Z,63.15
2024-01-14T15:12:54.868Z,64.78
2024-01-14T15:15:46.411Z,61.65
2024-01-14T15:18:35.761Z,65.13
2024-01-14T15:21:24.023Z,64.13
2024-01-14T15:24:13.737Z,61.75
2024-01-14T15:27:14.273Z,64.20
2024-01-14T15:30:04.110Z,60.90
2024-01-14T15:32:52.590Z,71.35
2024-01-14T15:35:46.013Z,66.95
2024-01-14T15:38:37.760Z,68.85
2024-01-14T15:41:31.589Z,73.78
2024-01-14T15:44:21.281Z,73.20
2024-01-14T15:47:09.610Z,73.90
2024-01-14T15:50:21.129Z,58.10
2024-01-14T15:53:16.940Z,69.47
2024-01-14T15:56:08.249Z,75.95
2024-01-14T15:58:56.673Z,68.68
2024-01-14T16:01:47.110Z,68.18
2024-01-14T16:04:35.459Z,64.78
2024-01-14T16:07:23.689Z,66.65
2024-01-14T16:10:14.593Z,67.07
2024-01-14T16:13:04.923Z,78.47
2024-01-14T16:15:53.422Z,65.40
2024-01-14T16:18:42.006Z,68.30
2024-01-14T16:21:34.858Z,69.60
2024-01-14T16:24:27.462Z,66.68
2024-01-14T16:27:24.283Z,58.28
2024-01-14T16:30:14.166Z,60.92
2024-01-14T16:33:07.728Z,62.53
2024-01-14T16:35:56.238Z,70.68
2024-01-14T16:38:44.900Z,67.32
2024-01-14T16:41:33.008Z,65.03
2024-01-14T16:44:23.466Z,70.65
2024-01-14T16:47:11.468Z,68.60
2024-01-14T16:50:03.238Z,63.40
2024-01-14T16:52:51.706Z,69.10
2024-01-14T16:55:39.771Z,63.80
2024-01-14T16:58:28.127Z,65.68
2024-01-14T17:01:19.011Z,59.28
2024-01-14T17:04:08.213Z,57.42
2024-01-14T17:06:56.452Z,58.75
2024-01-14T17:09:47.882Z,55.70
2024-01-14T17:12:36.189Z,58.60
2024-01-14T17:15:26.815Z,69.20
2024-01-14T17:18:15.556Z,62.75
2024-01-14T17:21:04.404Z,51.97
2024-01-14T17:23:56.711Z,52.42
2024-01-14T17:26:44.912Z,66.72
2024-01-14T17:29:39.158Z,58.72
2024-01-14T17:32:27.892Z,62.58
2024-01-14T17:35:23.514Z,53.25
2024-01-14T17:38:14.485Z,58.05
2024-01-14T17:41:03.276Z,68.20
2024-01-14T17:43:51.522Z,61.72
2024-01-14T17:46:42.730Z,56.05
2024-01-14T17:49:33.506Z,56.75
2024-01-14T17:52:27.506Z,63.95
2024-01-14T17:55:18.673Z,59.80
2024-01-14T17:58:08.738Z,72.72
2024-01-14T18:00:59.016Z,71.82
2024-01-14T18:03:47.705Z,53.92
2024-01-14T18:06:36.738Z,64.13
2024-01-14T18:09:25.228Z,78.20
2024-01-14T18:12:13.730Z,70.53
2024-01-14T18:15:04.454Z,75.88
2024-01-14T18:17:52.995Z,52.45
2024-01-14T18:20:41.733Z,63.33
2024-01-14T18:23:30.457Z,63.28
2024-01-14T18:26:18.995Z,79.53
2024-01-14T18:29:09.864Z,72.63
2024-01-14T18:32:05.438Z,81.28
2024-01-14T18:34:53.822Z,52.72
2024-01-14T18:37:45.322Z,71.72
2024-01-14T18:40:36.018Z,71.82
2024-01-14T18:43:24.396Z,86.43
2024-01-14T18:46:20.760Z,81.30
2024-01-14T18:49:22.877Z,75.78
2024-01-14T18:52:12.003Z,85.13
2024-01-14T18:55:10.217Z,84.07
2024-01-14T18:57:58.772Z,78.82
2024-01-14T19:00:50.043Z,71.05
2024-01-14T19:03:48.062Z,61.22
2024-01-14T19:06:37.317Z,70.70
2024-01-14T19:09:38.229Z,69.68
2024-01-14T19:12:29.192Z,85.13
2024-01-14T19:15:17.949Z,76.03
2024-01-14T19:18:17.914Z,79.90
2024-01-14T19:21:07.756Z,83.50
2024-01-14T19:23:59.737Z,69.95
2024-01-14T19:26:48.353Z,75.07
2024-01-14T19:29:36.677Z,73.15
2024-01-14T19:32:25.474Z,80.60
2024-01-14T19:35:13.764Z,89.20
2024-01-14T19:38:12.662Z,81.50
2024-01-14T19:41:02.087Z,85.10
2024-01-14T19:43:52.797Z,80.65
2024-01-14T19:46:42.535Z,79.53
2024-01-14T19:49:31.113Z,86.63
2024-01-14T19:52:23.759Z,81.20
2024-01-14T19:55:14.382Z,85.85
2024-01-14T19:58:07.142Z,74.88
2024-01-14T20:00:55.448Z,75.18
2024-01-14T20:03:49.983Z,80.38
2024-01-14T20:06:41.616Z,82.65
2024-01-14T20:09:30.621Z,87.43
2024-01-14T20:12:21.583Z,75.82
2024-01-14T20:15:12.421Z,90.32
2024-01-14T20:18:01.148Z,75.30
2024-01-14T20:20:54.270Z,87.13
2024-01-14T20:23:45.425Z,71.70
2024-01-14T20:26:36.241Z,85.80
2024-01-14T20:29:24.571Z,80.05
2024-01-14T20:32:12.802Z,87.80
2024-01-14T20:35:06.567Z,90.45
2024-01-14T20:38:07.867Z,87.25
2024-01-14T20:41:22.146Z,78.50
2024-01-14T20:44:22.119Z,62.35
2024-01-14T20:47:21.981Z,87.07
2024-01-14T20:50:15.294Z,77.25
2024-01-14T20:54:11.912Z,71.80
2024-01-14T20:56:44.530Z,73.80
2024-01-14T20:59:39.419Z,71.03
2024-01-14T21:02:37.849Z,80.55
2024-01-14T21:09:16.043Z,70.32
2024-01-14T21:12:07.617Z,65.75
2024-01-14T21:14:56.294Z,63.90
2024-01-14T21:17:45.629Z,61.25
2024-01-14T21:20:34.507Z,49.92
2024-01-14T21:23:25.346Z,61.50
2024-01-14T21:26:17.231Z,49.55
2024-01-14T21:29:07.007Z,41.50
2024-01-14T21:31:59.381Z,45.13
2024-01-14T21:34:54.743Z,45.72
2024-01-14T21:37:42.996Z,51.00
2024-01-14T21:40:34.488Z,51.35
2024-01-14T21:43:24.883Z,46.90
2024-01-14T21:46:13.883Z,43.63
2024-01-14T21:49:04.773Z,41.13
2024-01-14T21:51:53.372Z,49.78
2024-01-14T21:54:47.184Z,33.75
2024-01-14T21:57:41.217Z,50.75
2024-01-14T22:00:32.049Z,43.17
2024-01-14T22:03:20.469Z,43.83
2024-01-14T22:06:09.477Z,43.42
2024-01-14T22:08:57.847Z,42.10
2024-01-14T22:11:55.252Z,46.15
2024-01-14T22:14:54.262Z,41.70
2024-01-14T22:17:44.888Z,47.03
2024-01-14T22:20:36.067Z,43.00
2024-01-14T22:23:29.031Z,45.05
2024-01-14T22:26:17.625Z,39.33
2024-01-14T22:29:36.898Z,43.80
2024-01-14T22:32:25.335Z,49.50
2024-01-14T22:35:14.052Z,48.45
2024-01-14T22:38:02.253Z,49.08
2024-01-14T22:40:56.427Z,50.00
2024-01-14T22:43:44.956Z,36.08
2024-01-14T22:46:33.568Z,50.28
2024-01-14T22:49:24.631Z,48.80
2024-01-14T22:52:17.668Z,46.15
2024-01-14T22:55:06.406Z,42.65
2024-01-14T22:57:54.897Z,44.53
2024-01-14T23:00:46.150Z,57.42
2024-01-14T23:03:34.460Z,56.42
2024-01-14T23:06:24.978Z,47.35
2024-01-14T23:09:15.876Z,56.13
2024-01-14T23:12:05.026Z,48.20
2024-01-14T23:14:53.316Z,58.35
2024-01-14T23:17:42.193Z,49.33
2024-01-14T23:20:36.724Z,60.08
2024-01-14T23:23:28.145Z,64.47
2024-01-14T23:26:19.568Z,52.75
2024-01-14T23:29:07.792Z,58.58
2024-01-14T23:31:58.787Z,54.67
2024-01-14T23:34:46.956Z,48.88
2024-01-14T23:37:37.560Z,52.63
2024-01-14T23:40:26.030Z,49.28
2024-01-14T23:43:14.453Z,55.20
2024-01-14T23:46:11.002Z,54.53
2024-01-14T23:49:01.070Z,50.67
2024-01-14T23:51:49.859Z,60.60
2024-01-14T23:54:42.442Z,47.08
2024-01-14T23:57:32.162Z,59.80
